createdAt,value
2022-09-03T00:02:26.790Z,25.10
2022-09-03T00:05:11.376Z,25.09
2022-09-03T00:07:47.688Z,25.17
2022-09-03T00:10:28.902Z,25.13
2022-09-03T00:13:02.711Z,25.15
2022-09-03T00:15:33.601Z,25.11
2022-09-03T00:18:12.643Z,25.10
2022-09-03T00:20:43.435Z,25.15
2022-09-03T00:23:16.473Z,25.17
2022-09-03T00:26:05.588Z,25.14
2022-09-03T00:28:47.768Z,25.10
2022-09-03T00:31:28.997Z,25.11
2022-09-03T00:34:05.181Z,25.03
2022-09-03T00:36:42.355Z,25.03
2022-09-03T00:39:11.645Z,25.06
2022-09-03T00:42:06.818Z,25.04
2022-09-03T00:44:36.676Z,25.05
2022-09-03T00:47:18.264Z,25.11
2022-09-03T00:50:00.262Z,25.04
2022-09-03T00:53:04.408Z,25.00
2022-09-03T00:55:34.155Z,25.16
2022-09-03T00:58:20.681Z,25.18
2022-09-03T01:00:47.474Z,25.23
2022-09-03T01:03:39.908Z,25.18
2022-09-03T01:06:15.354Z,25.11
2022-09-03T01:09:31.584Z,25.09
2022-09-03T01:12:13.436Z,25.07
2022-09-03T01:15:00.444Z,25.11
2022-09-03T01:17:36.118Z,25.15
2022-09-03T01:20:35.085Z,25.02
2022-09-03T01:23:10.678Z,24.95
2022-09-03T01:25:49.785Z,24.97
2022-09-03T01:28:17.350Z,24.97
2022-09-03T01:30:51.258Z,24.98
2022-09-03T01:33:56.676Z,25.01
2022-09-03T01:36:29.760Z,25.04
2022-09-03T01:39:01.793Z,25.04
2022-09-03T01:41:53.094Z,25.03
2022-09-03T01:44:40.481Z,24.96
2022-09-03T01:47:35.699Z,24.96
2022-09-03T01:50:13.773Z,24.81
2022-09-03T01:52:50.389Z,24.79
2022-09-03T01:55:28.760Z,24.78
2022-09-03T01:58:00.742Z,24.81
2022-09-03T02:00:32.064Z,24.83
2022-09-03T02:03:05.705Z,24.79
2022-09-03T02:05:32.844Z,24.62
2022-09-03T02:08:02.728Z,24.64
2022-09-03T02:10:41.665Z,24.64
2022-09-03T02:13:21.959Z,24.64
2022-09-03T02:15:52.205Z,24.63
2022-09-03T02:18:33.521Z,24.56
2022-09-03T02:21:01.186Z,24.56
2022-09-03T02:23:28.873Z,24.42
2022-09-03T02:26:01.533Z,24.48
2022-09-03T02:28:30.692Z,24.47
2022-09-03T02:30:58.307Z,24.54
2022-09-03T02:33:26.463Z,24.54
2022-09-03T02:35:54.309Z,24.47
2022-09-03T02:38:25.862Z,24.48
2022-09-03T02:40:56.335Z,24.51
2022-09-03T02:43:42.032Z,24.53
2022-09-03T02:46:16.174Z,24.64
2022-09-03T02:48:43.025Z,24.57
2022-09-03T02:51:13.760Z,24.66
2022-09-03T02:53:42.575Z,24.56
2022-09-03T02:56:09.446Z,24.52
2022-09-03T02:58:36.611Z,24.36
2022-09-03T03:01:04.185Z,24.22
2022-09-03T03:03:31.658Z,24.16
2022-09-03T03:06:02.066Z,24.10
2022-09-03T03:08:30.344Z,23.99
2022-09-03T03:10:59.340Z,23.95
2022-09-03T03:13:31.515Z,23.83
2022-09-03T03:16:00.215Z,23.83
2022-09-03T03:18:28.235Z,23.75
2022-09-03T03:20:55.424Z,23.72
2022-09-03T03:23:22.290Z,23.71
2022-09-03T03:25:49.181Z,23.59
2022-09-03T03:28:16.256Z,23.51
2022-09-03T03:30:43.241Z,23.49
2022-09-03T03:33:10.337Z,23.47
2022-09-03T03:35:37.597Z,23.54
2022-09-03T03:38:05.048Z,23.50
2022-09-03T03:40:31.976Z,23.45
2022-09-03T03:42:59.017Z,23.42
2022-09-03T03:45:26.227Z,23.45
2022-09-03T03:47:57.563Z,23.41
2022-09-03T03:50:25.587Z,23.48
2022-09-03T03:52:52.465Z,23.50
2022-09-03T03:55:19.269Z,23.44
2022-09-03T03:57:47.055Z,23.44
2022-09-03T04:00:15.129Z,23.50
2022-09-03T04:02:42.020Z,23.50
2022-09-03T04:05:09.137Z,23.55
2022-09-03T04:07:36.189Z,23.45
2022-09-03T04:10:03.328Z,23.43
2022-09-03T04:12:30.083Z,23.38
2022-09-03T04:14:56.756Z,23.32
2022-09-03T04:17:25.347Z,23.23
2022-09-03T04:19:52.324Z,23.11
2022-09-03T04:22:20.651Z,22.89
2022-09-03T04:24:47.565Z,22.81
2022-09-03T04:27:14.393Z,22.70
2022-09-03T04:29:41.673Z,22.49
2022-09-03T04:32:26.739Z,22.44
2022-09-03T04:34:53.471Z,22.35
2022-09-03T04:37:20.321Z,22.27
2022-09-03T04:39:47.240Z,22.20
2022-09-03T04:42:14.069Z,22.19
2022-09-03T04:44:41.235Z,22.24
2022-09-03T04:47:08.116Z,22.22
2022-09-03T04:49:34.963Z,22.24
2022-09-03T04:52:03.426Z,22.30
2022-09-03T04:54:30.181Z,22.25
2022-09-03T04:56:57.273Z,22.29
2022-09-03T04:59:24.147Z,22.31
2022-09-03T05:01:52.731Z,22.36
2022-09-03T05:04:19.844Z,22.43
2022-09-03T05:06:46.605Z,22.43
2022-09-03T05:09:13.524Z,22.47
2022-09-03T05:11:40.504Z,22.45
2022-09-03T05:14:11.677Z,22.43
2022-09-03T05:16:38.745Z,22.52
2022-09-03T05:19:08.679Z,22.60
2022-09-03T05:21:36.403Z,22.55
2022-09-03T05:24:04.330Z,22.54
2022-09-03T05:26:34.197Z,22.55
2022-09-03T05:29:03.101Z,22.65
2022-09-03T05:31:32.068Z,22.73
2022-09-03T05:34:01.240Z,22.80
2022-09-03T05:36:34.637Z,22.75
2022-09-03T05:39:02.197Z,22.81
2022-09-03T05:41:29.751Z,22.90
2022-09-03T05:43:59.147Z,22.90
2022-09-03T05:46:32.043Z,22.96
2022-09-03T05:49:06.346Z,22.91
2022-09-03T05:51:34.919Z,22.94
2022-09-03T05:54:02.745Z,23.06
2022-09-03T05:56:31.672Z,23.03
2022-09-03T05:59:01.635Z,22.99
2022-09-03T06:01:34.233Z,22.99
2022-09-03T06:04:07.265Z,22.96
2022-09-03T06:06:37.232Z,23.12
2022-09-03T06:09:06.624Z,23.10
2022-09-03T06:11:35.400Z,23.07
2022-09-03T06:14:05.823Z,23.00
2022-09-03T06:16:34.822Z,23.05
2022-09-03T06:19:02.674Z,23.13
2022-09-03T06:21:29.620Z,23.09
2022-09-03T06:23:58.515Z,23.08
2022-09-03T06:26:29.251Z,23.22
2022-09-03T06:28:57.394Z,23.21
2022-09-03T06:31:25.655Z,23.14
2022-09-03T06:33:54.472Z,23.01
2022-09-03T06:36:23.249Z,23.07
2022-09-03T06:38:55.359Z,23.12
2022-09-03T06:41:27.418Z,23.25
2022-09-03T06:43:59.104Z,23.28
2022-09-03T06:46:25.821Z,23.35
2022-09-03T06:48:53.333Z,23.48
2022-09-03T06:51:22.981Z,23.53
2022-09-03T06:53:52.739Z,23.69
2022-09-03T06:56:27.556Z,23.91
2022-09-03T06:58:58.947Z,24.00
2022-09-03T07:01:28.512Z,24.31
2022-09-03T07:03:57.947Z,24.64
2022-09-03T07:06:29.795Z,24.90
2022-09-03T07:08:57.878Z,25.10
2022-09-03T07:11:26.984Z,25.29
2022-09-03T07:13:54.422Z,25.45
2022-09-03T07:16:26.637Z,25.66
2022-09-03T07:18:54.964Z,26.09
2022-09-03T07:21:24.363Z,26.47
2022-09-03T07:23:52.463Z,26.68
2022-09-03T07:26:24.472Z,26.81
2022-09-03T07:28:52.148Z,27.10
2022-09-03T07:31:32.024Z,27.08
2022-09-03T07:34:01.359Z,27.05
2022-09-03T07:36:30.544Z,27.26
2022-09-03T07:39:04.253Z,27.53
2022-09-03T07:41:33.259Z,27.45
2022-09-03T07:44:05.487Z,27.52
2022-09-03T07:46:34.973Z,28.68
2022-09-03T07:49:02.502Z,30.96
2022-09-03T07:51:31.764Z,33.47
2022-09-03T07:54:02.030Z,35.22
2022-09-03T07:56:32.705Z,35.64
2022-09-03T07:58:59.511Z,34.00
2022-09-03T08:01:28.586Z,32.78
2022-09-03T08:03:55.889Z,32.02
2022-09-03T08:06:25.362Z,31.40
2022-09-03T08:09:04.951Z,31.00
2022-09-03T08:11:36.103Z,30.00
2022-09-03T08:14:06.610Z,29.57
2022-09-03T08:16:42.314Z,29.25
2022-09-03T08:19:09.692Z,29.23
2022-09-03T08:21:36.691Z,28.59
2022-09-03T08:24:04.019Z,28.33
2022-09-03T08:26:33.797Z,28.18
2022-09-03T08:29:01.582Z,28.13
2022-09-03T08:31:29.604Z,28.14
2022-09-03T08:33:59.051Z,27.77
2022-09-03T08:36:31.103Z,27.89
2022-09-03T08:39:08.071Z,27.85
2022-09-03T08:41:46.646Z,28.24
2022-09-03T08:44:30.584Z,28.42
2022-09-03T08:47:02.535Z,28.56
2022-09-03T08:49:40.017Z,28.56
2022-09-03T08:52:21.418Z,28.18
2022-09-03T08:54:51.076Z,28.03
2022-09-03T08:57:20.754Z,27.84
2022-09-03T08:59:53.364Z,28.00
2022-09-03T09:02:46.927Z,28.06
2022-09-03T09:05:21.763Z,28.37
2022-09-03T09:08:12.970Z,29.25
2022-09-03T09:10:39.709Z,29.65
2022-09-03T09:13:28.139Z,29.27
2022-09-03T09:16:10.116Z,29.13
2022-09-03T09:19:01.626Z,28.59
2022-09-03T09:21:32.316Z,28.07
2022-09-03T09:24:05.348Z,27.75
2022-09-03T09:26:34.035Z,27.46
2022-09-03T09:29:12.732Z,27.40
2022-09-03T09:31:42.687Z,27.54
2022-09-03T09:34:09.569Z,27.51
2022-09-03T09:36:48.352Z,27.44
2022-09-03T09:39:19.270Z,27.48
2022-09-03T09:41:58.977Z,27.30
2022-09-03T09:44:26.669Z,27.29
2022-09-03T09:47:06.273Z,27.74
2022-09-03T09:49:44.050Z,28.79
2022-09-03T09:52:16.399Z,30.36
2022-09-03T09:54:48.639Z,33.10
2022-09-03T09:57:18.288Z,34.66
2022-09-03T09:59:46.350Z,35.98
2022-09-03T10:02:28.742Z,37.29
2022-09-03T10:05:02.330Z,38.55
2022-09-03T10:07:32.860Z,39.27
2022-09-03T10:10:02.595Z,39.43
2022-09-03T10:12:37.913Z,39.13
2022-09-03T10:15:10.796Z,39.05
2022-09-03T10:18:00.240Z,38.91
2022-09-03T10:20:39.035Z,39.73
2022-09-03T10:23:18.041Z,40.14
2022-09-03T10:25:57.106Z,40.62
2022-09-03T10:28:30.456Z,42.17
2022-09-03T10:31:13.826Z,43.46
2022-09-03T10:34:05.051Z,44.87
2022-09-03T10:36:39.800Z,46.02
2022-09-03T10:39:19.429Z,46.23
2022-09-03T10:42:06.743Z,46.81
2022-09-03T10:44:46.396Z,46.46
2022-09-03T10:47:31.817Z,46.98
2022-09-03T10:50:16.473Z,45.04
2022-09-03T10:53:20.990Z,44.45
2022-09-03T10:56:01.817Z,44.47
2022-09-03T10:59:02.646Z,45.93
2022-09-03T11:02:07.928Z,46.69
2022-09-03T11:04:45.548Z,45.36
2022-09-03T11:07:14.782Z,43.27
2022-09-03T11:09:55.105Z,42.02
2022-09-03T11:12:35.249Z,40.20
2022-09-03T11:15:31.220Z,38.90
2022-09-03T11:18:04.493Z,37.39
2022-09-03T11:20:32.287Z,37.62
2022-09-03T11:23:05.704Z,39.49
2022-09-03T11:25:35.723Z,41.99
2022-09-03T11:28:28.501Z,43.04
2022-09-03T11:31:23.839Z,43.33
2022-09-03T11:34:01.607Z,42.24
2022-09-03T11:36:32.320Z,40.62
2022-09-03T11:39:00.525Z,39.16
2022-09-03T11:41:32.220Z,38.77
2022-09-03T11:44:03.901Z,40.06
2022-09-03T11:46:31.805Z,40.10
2022-09-03T11:49:13.478Z,40.12
2022-09-03T11:51:44.049Z,41.11
2022-09-03T11:54:13.810Z,43.07
2022-09-03T11:56:42.453Z,43.27
2022-09-03T11:59:23.550Z,41.33
2022-09-03T12:01:57.437Z,40.09
2022-09-03T12:04:49.421Z,40.37
2022-09-03T12:07:50.501Z,39.72
2022-09-03T12:10:55.748Z,41.42
2022-09-03T12:13:35.585Z,42.13
2022-09-03T12:16:23.710Z,42.08
2022-09-03T12:18:53.147Z,40.77
2022-09-03T12:21:21.161Z,39.57
2022-09-03T12:23:51.013Z,38.37
2022-09-03T12:26:27.416Z,37.06
2022-09-03T12:28:59.836Z,36.04
2022-09-03T12:31:30.103Z,35.20
2022-09-03T12:34:00.389Z,34.82
2022-09-03T12:36:40.330Z,34.37
2022-09-03T12:40:04.910Z,33.99
2022-09-03T12:42:12.169Z,33.74
2022-09-03T12:44:41.812Z,33.48
2022-09-03T12:50:09.673Z,32.75
2022-09-03T12:52:46.590Z,32.44
2022-09-03T12:55:35.005Z,32.18
2022-09-03T12:58:14.288Z,32.07
2022-09-03T13:00:57.765Z,31.61
2022-09-03T13:03:34.453Z,31.31
2022-09-03T13:06:10.687Z,31.07
2022-09-03T13:08:45.444Z,30.92
2022-09-03T13:11:16.968Z,30.74
2022-09-03T13:13:54.450Z,30.55
2022-09-03T13:16:33.969Z,29.76
